パラオ の空港の天気 - METARとTAF

パラオ国際空港 ( PTRO / ROR ) - パラオ アイライ州
飛行場実況気象(Metar)
観測時間09/28 08:50 PWT (09/27 23:50 UTC)
風向・風速東北東 2m/s
視程10km以上
天気現象
全天の8割程度の雲 雲底高度 460m
全天の8割程度の雲 雲底高度 3350m
全天を覆う雲 雲底高度 8840m
気温26℃
湿度84%
気圧1010hPa
METARPTRO 272350Z 07004KT 13SM BKN015CB BKN110 OVC290 26/23 A2982 RMK CB ALQDS
過去の天気等 Google飛行場航空写真 Wunderground天気予報

過去48時間のMETAR

飛行場予報(TAF)
発表時間: 9/28 08:30 PWT (9/27 23:30 UTC)
予報対象時間: 28日9時 PWT ~ 29日9時 PWT
風向・風速不定 3m/s
視程10km以上
天気現象周辺でしゅう雨
全天の4割程度の雲 雲底高度 460m
全天の8割程度の雲 雲底高度 3350m
28日9時 PWT ~ 28日13時 PWT に一時的に
視程8050m
天気現象しゅう雨
全天の4割程度の雲 雲底高度 460m
全天の8割程度の雲 雲底高度 910m
PTRO 272330Z 2800/2824 VRB06KT P6SM VCSH SCT015 BKN110
TEMPO 2800/2804 5SM SHRA SCT015 BKN030